Aviation Digital Data Service (ADDS)

Output produced by METARs form (1642 UTC 28 February 2017)
found at http://www.aviationweather.gov/adds/metars/
 
KIPT 281554Z 09004KT 10SM CLR 13/M01 A3025 RMK AO2 SLP245 T01281006
KIPT 281454Z VRB03KT 10SM CLR 10/01 A3026 RMK AO2 SLP249 T01000011 58007
KIPT 281354Z 00000KT 10SM CLR 06/01 A3029 RMK AO2 SLP260 T00610006
KIPT 281254Z 00000KT 10SM CLR 03/00 A3029 RMK AO2 SLP260 T00280000
KIPT 281154Z 00000KT 10SM FEW070 03/00 A3028 RMK AO2 SLP258 T00280000 10056 20028 58005
KIPT 281054Z AUTO 00000KT 10SM BKN070 OVC100 04/01 A3030 RMK AO2 SLP262 T00390006 TSNO
KIPT 280954Z AUTO 00000KT 10SM OVC100 04/01 A3029 RMK AO2 SLP262 T00390006 TSNO
KIPT 280854Z AUTO 05003KT 10SM SCT085 OVC110 04/01 A3030 RMK AO2 SLP262 T00390006 58007 TSNO
KIPT 280754Z AUTO 00000KT 10SM OVC080 04/01 A3030 RMK AO2 SLP264 T00440006 TSNO
KIPT 280654Z AUTO 00000KT 10SM OVC100 05/01 A3032 RMK AO2 SLP269 T00500006 TSNO
KIPT 280554Z AUTO 00000KT 10SM OVC085 05/01 A3032 RMK AO2 SLP269 60000 T00500011 10083 20044 58007 TSNO
KIPT 280454Z AUTO 29003KT 10SM OVC080 06/01 A3033 RMK AO2 SLP274 T00560006 400891056 TSNO
KIPT 280354Z AUTO 01004KT 10SM OVC065 06/01 A3034 RMK AO2 SLP277 T00610011 TSNO
KIPT 280254Z 07005KT 10SM SCT043 OVC060 07/01 A3034 RMK AO2 SLP277 60000 T00720006 51000
KIPT 280154Z VRB05KT 10SM FEW042 OVC065 08/01 A3034 RMK AO2 RAB06E41 SLP278 P0000 T00780006
KIPT 280054Z 15005KT 10SM BKN041 OVC050 08/M01 A3034 RMK AO2 SLP280 T00781006
KIPT 272354Z 16006KT 10SM OVC047 08/M02 A3034 RMK AO2 SLP278 T00781017 10089 20067 51005
KIPT 272254Z 18010KT 10SM OVC060 09/M03 A3033 RMK AO2 SLP277 T00891033
KIPT 272154Z 15007KT 10SM BKN080 OVC090 09/M05 A3033 RMK AO2 SLP275 T00891050
KIPT 272054Z 17007KT 120V200 10SM OVC085 08/M06 A3032 RMK AO2 SLP273 T00831056 55001
KIPT 271954Z 05006KT 10SM OVC090 08/M06 A3031 RMK AO2 SLP269 T00831061
KIPT 271854Z VRB03KT 10SM BKN090 BKN110 08/M07 A3031 RMK AO2 SLP268 T00781072
KIPT 271754Z 14005KT 10SM BKN110 07/M06 A3033 RMK AO2 SLP274 T00721061 10072 21050 58015
KIPT 271654Z 08003KT 10SM FEW075 OVC100 05/M06 A3036 RMK AO2 SLP285 T00501061
KIPT 271554Z VRB03KT 10SM BKN080 OVC110 03/M05 A3036 RMK AO2 SLP288 T00281050
KIPT 271454Z 00000KT 10SM OVC080 M01/M05 A3037 RMK AO2 SLP292 T10061050 50011
KIPT 271354Z 00000KT 10SM OVC080 M03/M06 A3038 RMK AO2 SLP294 T10281056
KIPT 271254Z 00000KT 10SM FEW095 M04/M07 A3035 RMK AO2 SLP285 T10391067
KIPT 271154Z 00000KT 10SM CLR M05/M08 A3034 RMK AO2 SLP280 T10501083 11033 21056 53016
KIPT 271054Z AUTO 03003KT 10SM CLR M05/M08 A3031 RMK AO2 SLP271 T10501083 TSNO
KIPT 270954Z AUTO 00000KT 10SM CLR M05/M08 A3030 RMK AO2 SLP268 T10501083 TSNO
KIPT 270854Z AUTO 00000KT 10SM CLR M05/M08 A3029 RMK AO2 SLP263 T10501078 53014 TSNO
KIPT 270754Z AUTO 00000KT 10SM CLR M04/M07 A3027 RMK AO2 SLP256 T10441072 TSNO
KIPT 270654Z AUTO 00000KT 10SM CLR M04/M08 A3026 RMK AO2 SLP253 T10441078 TSNO
KIPT 270554Z AUTO 00000KT 10SM CLR M04/M08 A3025 RMK AO2 SLP249 T10441083 10011 21044 53008 TSNO
KIPT 270454Z AUTO 00000KT 10SM CLR M03/M07 A3024 RMK AO2 SLP245 T10281072 400391033 TSNO